Time;durP1;ratioP1;P1;durP2;ratioP2;P2;SDS_P1;SDS_P2;PMS_P1;PMS_P2;Temp;Humidity;BMP_temperature;BMP_pressure;BME280_temperature;BME280_humidity;BME280_pressure;Samples;Min_cycle;Max_cycle;Signal;HPM_P1;HPM_P2
2023/11/27 00:02:24;;;;;;;5.47;3.35;;;6.00;99.90;;;;;;10035051;28;20042;-75
2023/11/27 00:07:15;;;;;;;5.15;3.15;;;6.00;99.90;;;;;;10018871;28;20050;-75
2023/11/27 00:12:10;;;;;;;7.97;3.88;;;6.10;99.90;;;;;;10017807;28;20021;-74
2023/11/27 00:17:01;;;;;;;6.15;3.58;;;6.00;99.90;;;;;;10017889;28;20033;-73
2023/11/27 00:21:52;;;;;;;6.20;3.40;;;6.10;99.90;;;;;;10018509;28;20101;-73
2023/11/27 00:26:43;;;;;;;5.53;2.60;;;6.00;99.90;;;;;;10019460;28;20125;-74
2023/11/27 00:31:34;;;;;;;4.15;2.83;;;6.00;99.90;;;;;;10017623;28;20143;-73
2023/11/27 00:36:28;;;;;;;7.65;3.28;;;6.00;99.90;;;;;;10017438;28;20611;-74
2023/11/27 00:41:19;;;;;;;6.45;3.17;;;6.00;99.90;;;;;;10017439;28;20536;-73
2023/11/27 00:46:10;;;;;;;6.18;2.97;;;6.10;99.90;;;;;;10016743;28;20033;-73
2023/11/27 00:51:01;;;;;;;4.68;2.85;;;6.10;99.90;;;;;;10017531;28;20072;-74
2023/11/27 00:55:52;;;;;;;4.43;2.83;;;6.10;99.90;;;;;;10016227;28;20050;-74
2023/11/27 01:00:44;;;;;;;5.90;2.85;;;6.00;99.90;;;;;;10016785;28;20548;-74
2023/11/27 01:05:35;;;;;;;5.15;2.60;;;6.00;99.90;;;;;;10017049;28;20029;-74
2023/11/27 01:10:29;;;;;;;6.53;3.10;;;6.00;99.90;;;;;;10016879;28;20038;-74
2023/11/27 01:15:21;;;;;;;8.27;3.58;;;5.90;99.90;;;;;;10016302;28;20018;-75
2023/11/27 01:20:12;;;;;;;5.25;2.50;;;6.00;99.90;;;;;;10015900;28;20176;-74
2023/11/27 01:25:04;;;;;;;7.00;3.55;;;6.00;99.90;;;;;;10019464;28;20213;-75
2023/11/27 01:29:55;;;;;;;5.97;2.90;;;6.00;99.90;;;;;;10031425;28;20566;-74
2023/11/27 01:34:46;;;;;;;7.93;3.40;;;6.00;99.90;;;;;;10016309;28;20023;-74
2023/11/27 01:39:39;;;;;;;7.18;3.45;;;5.90;99.90;;;;;;10016198;28;20038;-72
2023/11/27 01:44:33;;;;;;;5.68;3.63;;;5.90;99.90;;;;;;10016013;28;20030;-74
2023/11/27 01:49:24;;;;;;;5.45;2.90;;;6.00;99.90;;;;;;10027913;28;20042;-74
2023/11/27 01:54:17;;;;;;;6.47;3.70;;;5.90;99.90;;;;;;10015515;28;20045;-74
2023/11/27 01:59:10;;;;;;;6.30;3.17;;;5.90;99.90;;;;;;10036163;28;20030;-73
2023/11/27 02:04:02;;;;;;;8.00;2.90;;;5.90;99.90;;;;;;10023678;28;20022;-73
2023/11/27 02:08:53;;;;;;;5.63;3.17;;;5.80;99.90;;;;;;10023145;28;20042;-75
2023/11/27 02:13:45;;;;;;;5.10;3.17;;;5.80;99.90;;;;;;10022045;28;20084;-73
2023/11/27 02:18:36;;;;;;;5.82;3.47;;;5.70;99.90;;;;;;10023148;28;20121;-74
2023/11/27 02:23:27;;;;;;;7.75;3.30;;;5.70;99.90;;;;;;10023500;28;20026;-74
2023/11/27 02:28:18;;;;;;;5.72;4.03;;;5.70;99.90;;;;;;10024560;28;20048;-73
2023/11/27 02:33:08;;;;;;;4.32;3.25;;;5.70;99.90;;;;;;10028799;28;20021;-73
2023/11/27 02:38:01;;;;;;;4.13;3.20;;;5.70;99.90;;;;;;10023238;28;20538;-74
2023/11/27 02:42:52;;;;;;;6.20;4.18;;;5.50;99.90;;;;;;10023064;28;20037;-74
2023/11/27 02:47:43;;;;;;;5.53;3.17;;;5.60;99.90;;;;;;10022371;28;20082;-75
2023/11/27 02:52:34;;;;;;;4.60;2.95;;;5.60;99.90;;;;;;10022169;28;20026;-74
2023/11/27 02:57:25;;;;;;;6.78;3.35;;;5.60;99.90;;;;;;10021066;28;20058;-74
2023/11/27 03:02:16;;;;;;;6.55;3.15;;;5.50;99.90;;;;;;10019989;28;20032;-74
2023/11/27 03:07:07;;;;;;;3.38;2.67;;;5.40;99.90;;;;;;10018981;28;20121;-72
2023/11/27 03:12:00;;;;;;;8.98;3.55;;;5.60;99.90;;;;;;10020876;28;20552;-73
2023/11/27 03:16:51;;;;;;;4.63;2.72;;;5.50;99.90;;;;;;10020188;28;20030;-72
2023/11/27 03:21:42;;;;;;;3.58;2.72;;;5.40;99.90;;;;;;10020710;28;20018;-73
2023/11/27 03:26:32;;;;;;;4.03;2.67;;;5.50;99.90;;;;;;10022412;28;20400;-73
2023/11/27 03:31:23;;;;;;;6.90;3.60;;;5.50;99.90;;;;;;10024734;28;20116;-74
2023/11/27 03:36:14;;;;;;;7.93;3.35;;;5.40;99.90;;;;;;10018011;28;20363;-74
2023/11/27 03:41:06;;;;;;;6.82;3.15;;;5.50;99.90;;;;;;10034903;28;20040;-75
2023/11/27 03:45:56;;;;;;;6.05;3.00;;;5.40;99.90;;;;;;10019412;28;20283;-73
2023/11/27 03:50:47;;;;;;;6.35;3.28;;;5.40;99.90;;;;;;10019192;28;20629;-72
2023/11/27 03:55:39;;;;;;;6.55;2.80;;;5.50;99.90;;;;;;10021488;28;20348;-72
2023/11/27 04:00:30;;;;;;;6.78;3.63;;;5.60;99.90;;;;;;10019341;28;20029;-72
2023/11/27 04:05:24;;;;;;;5.55;3.22;;;5.60;99.90;;;;;;10017602;28;20048;-72
2023/11/27 04:10:16;;;;;;;6.10;3.22;;;5.50;99.90;;;;;;10017768;28;20073;-72
2023/11/27 04:15:07;;;;;;;4.40;2.78;;;5.40;99.90;;;;;;10018520;28;20559;-74
2023/11/27 04:20:02;;;;;;;5.30;2.45;;;5.50;99.90;;;;;;10017776;28;20072;-72
2023/11/27 04:24:53;;;;;;;5.23;3.27;;;5.50;99.90;;;;;;10020010;28;20033;-73
2023/11/27 04:29:44;;;;;;;6.03;3.17;;;5.50;99.90;;;;;;10016047;28;20037;-73
2023/11/27 04:34:35;;;;;;;5.38;4.10;;;5.50;99.90;;;;;;10017444;28;20034;-72
2023/11/27 04:39:25;;;;;;;4.35;2.75;;;5.50;99.90;;;;;;10017544;28;20430;-73
2023/11/27 04:44:16;;;;;;;4.60;3.35;;;5.40;99.90;;;;;;10017495;28;20117;-72
2023/11/27 04:49:09;;;;;;;8.50;3.58;;;5.50;99.90;;;;;;10016769;28;20030;-72
2023/11/27 04:54:02;;;;;;;9.75;3.58;;;5.40;99.90;;;;;;10032115;28;20507;-73
2023/11/27 04:58:55;;;;;;;5.47;3.10;;;5.40;99.90;;;;;;10032365;28;20419;-73
2023/11/27 05:03:46;;;;;;;6.13;2.85;;;5.50;99.90;;;;;;10016721;28;20117;-72
2023/11/27 05:08:36;;;;;;;6.97;2.95;;;5.40;99.90;;;;;;10016487;28;20025;-72
2023/11/27 05:13:27;;;;;;;5.95;3.08;;;5.50;99.90;;;;;;10017418;28;20033;-74
2023/11/27 05:18:18;;;;;;;7.40;3.85;;;5.40;99.90;;;;;;10015490;28;20022;-74
2023/11/27 05:23:08;;;;;;;7.65;4.05;;;5.50;99.90;;;;;;10016025;28;20114;-72
2023/11/27 05:27:59;;;;;;;3.95;3.22;;;5.40;99.90;;;;;;10015942;28;20514;-72
2023/11/27 05:32:50;;;;;;;5.65;3.20;;;5.50;99.90;;;;;;10023912;28;20026;-74
2023/11/27 05:37:41;;;;;;;4.63;3.28;;;5.40;99.90;;;;;;10027597;28;20048;-74
2023/11/27 05:42:36;;;;;;;5.18;2.83;;;5.40;99.90;;;;;;10029215;28;20034;-74
2023/11/27 05:47:27;;;;;;;5.85;3.20;;;5.40;99.90;;;;;;10029206;28;20057;-74
2023/11/27 05:52:18;;;;;;;3.80;2.78;;;5.60;99.90;;;;;;10027269;28;20022;-75
2023/11/27 05:57:09;;;;;;;6.95;3.60;;;5.50;99.90;;;;;;10026458;28;20054;-74
2023/11/27 06:02:00;;;;;;;5.78;3.13;;;5.50;99.90;;;;;;10043891;28;20034;-74
2023/11/27 06:06:50;;;;;;;3.63;2.42;;;5.50;99.90;;;;;;10028352;28;20034;-74
2023/11/27 06:11:41;;;;;;;4.60;2.55;;;5.40;99.90;;;;;;10028575;28;20056;-72
2023/11/27 06:16:32;;;;;;;7.05;3.60;;;5.50;99.90;;;;;;10027909;28;20496;-73
2023/11/27 06:21:23;;;;;;;5.28;3.05;;;5.50;99.90;;;;;;10028595;28;20109;-75
2023/11/27 06:26:13;;;;;;;5.15;3.05;;;5.40;99.90;;;;;;10028204;28;20560;-74
2023/11/27 06:31:04;;;;;;;4.60;2.38;;;5.40;99.90;;;;;;10051146;28;20098;-73
2023/11/27 06:35:55;;;;;;;6.22;2.92;;;5.40;99.90;;;;;;10028154;28;20033;-73
2023/11/27 06:40:49;;;;;;;5.75;2.28;;;5.30;99.90;;;;;;10028839;28;20080;-73
2023/11/27 06:45:39;;;;;;;6.38;3.05;;;5.30;99.90;;;;;;10038262;28;20033;-76
2023/11/27 06:50:30;;;;;;;8.30;2.17;;;5.30;99.90;;;;;;10029538;28;20042;-75
2023/11/27 06:55:21;;;;;;;5.15;3.42;;;5.20;99.90;;;;;;10021029;28;20815;-74
2023/11/27 07:00:14;;;;;;;2.78;2.08;;;5.30;99.90;;;;;;10036082;28;20042;-73
2023/11/27 07:05:05;;;;;;;4.20;2.70;;;5.30;99.90;;;;;;10020590;28;20025;-73
2023/11/27 07:09:56;;;;;;;3.50;2.05;;;5.40;99.90;;;;;;10019741;28;20048;-73
2023/11/27 07:14:46;;;;;;;5.72;2.33;;;5.40;99.90;;;;;;10020836;28;20411;-74
2023/11/27 07:19:37;;;;;;;4.38;2.80;;;5.30;99.90;;;;;;10019853;28;20038;-74
2023/11/27 07:24:28;;;;;;;3.67;2.15;;;5.30;99.90;;;;;;10019637;28;20030;-74
2023/11/27 07:29:19;;;;;;;4.35;2.55;;;5.30;99.90;;;;;;10020856;28;20132;-74
2023/11/27 07:34:11;;;;;;;5.03;2.75;;;5.40;99.90;;;;;;10019846;28;20050;-74
2023/11/27 07:39:02;;;;;;;3.97;2.00;;;5.40;99.90;;;;;;10017102;28;20033;-73
2023/11/27 07:43:56;;;;;;;3.53;2.20;;;5.40;99.90;;;;;;10021086;28;20136;-72
2023/11/27 07:48:48;;;;;;;3.38;2.30;;;5.40;99.90;;;;;;10019025;28;20049;-71
2023/11/27 07:53:42;;;;;;;5.30;2.80;;;5.50;99.90;;;;;;10018803;28;20034;-69
2023/11/27 07:58:33;;;;;;;2.88;1.92;;;5.50;99.90;;;;;;10018189;28;20664;-72
2023/11/27 08:03:23;;;;;;;3.53;2.47;;;5.50;99.90;;;;;;10018823;28;20092;-71
2023/11/27 08:08:15;;;;;;;3.25;2.40;;;5.40;99.90;;;;;;10019127;28;20041;-72
2023/11/27 08:13:06;;;;;;;4.13;2.28;;;5.40;99.90;;;;;;10032688;28;20036;-72
2023/11/27 08:18:00;;;;;;;5.40;2.47;;;5.50;99.90;;;;;;10016025;28;20034;-72
2023/11/27 08:22:51;;;;;;;4.95;2.30;;;5.60;99.90;;;;;;10017706;28;20026;-73
2023/11/27 08:27:42;;;;;;;5.03;2.33;;;5.60;99.90;;;;;;10019443;28;20046;-70
2023/11/27 08:32:33;;;;;;;4.75;2.45;;;5.60;99.90;;;;;;10020238;28;20034;-71
2023/11/27 08:37:24;;;;;;;3.75;2.42;;;5.70;99.90;;;;;;10016113;28;20459;-72
2023/11/27 08:42:15;;;;;;;4.32;2.08;;;5.70;99.90;;;;;;10015757;28;20033;-73
2023/11/27 08:47:05;;;;;;;2.90;2.10;;;5.70;99.90;;;;;;10015350;28;20036;-74
2023/11/27 08:51:56;;;;;;;3.60;1.63;;;5.60;99.90;;;;;;10013713;28;20026;-72
2023/11/27 08:56:47;;;;;;;2.85;1.83;;;5.70;99.90;;;;;;10018591;28;20120;-70
2023/11/27 09:01:38;;;;;;;3.55;2.10;;;5.70;99.90;;;;;;10030785;28;20026;-71
2023/11/27 09:06:29;;;;;;;4.28;1.95;;;5.80;99.90;;;;;;10014879;28;20026;-71
2023/11/27 09:11:19;;;;;;;4.13;1.75;;;5.70;99.90;;;;;;10015303;28;20105;-71
2023/11/27 09:16:10;;;;;;;3.28;2.03;;;5.80;99.90;;;;;;10015139;28;20395;-75
2023/11/27 09:21:01;;;;;;;3.85;1.75;;;5.80;99.90;;;;;;10014882;28;20022;-72
2023/11/27 09:25:52;;;;;;;2.65;1.67;;;5.80;99.90;;;;;;10017101;28;20045;-74
2023/11/27 09:30:42;;;;;;;3.00;1.65;;;5.80;99.90;;;;;;10015240;28;20049;-72
2023/11/27 09:35:33;;;;;;;3.88;1.65;;;5.80;99.90;;;;;;10017246;28;20100;-71
2023/11/27 09:40:24;;;;;;;2.70;1.60;;;5.80;99.90;;;;;;10014843;28;20073;-72
2023/11/27 09:45:16;;;;;;;3.63;1.85;;;5.90;99.90;;;;;;10014679;28;20545;-73
2023/11/27 09:50:09;;;;;;;3.55;1.90;;;5.90;99.90;;;;;;10027282;28;20100;-73
2023/11/27 09:55:06;;;;;;;3.78;2.22;;;5.90;99.90;;;;;;10010503;28;20041;-73
2023/11/27 09:59:57;;;;;;;2.28;2.08;;;5.90;99.90;;;;;;10012342;28;20041;-72
2023/11/27 10:04:48;;;;;;;5.93;2.65;;;6.00;99.90;;;;;;10011308;28;20048;-73
2023/11/27 10:09:39;;;;;;;2.97;1.85;;;5.90;99.90;;;;;;10012601;28;20042;-74
2023/11/27 10:14:30;;;;;;;2.75;1.55;;;6.00;99.90;;;;;;10012244;28;20643;-73
2023/11/27 10:19:24;;;;;;;4.72;1.67;;;6.00;99.90;;;;;;10014250;28;20033;-73
2023/11/27 10:24:18;;;;;;;3.15;1.85;;;6.00;99.90;;;;;;10020921;28;20036;-71
2023/11/27 10:29:10;;;;;;;3.28;1.80;;;6.00;99.90;;;;;;10021420;28;20038;-72
2023/11/27 10:34:05;;;;;;;4.65;1.95;;;6.00;99.90;;;;;;10035535;28;20032;-78
2023/11/27 10:39:05;;;;;;;3.78;1.88;;;6.00;99.90;;;;;;10021325;28;20022;-73
2023/11/27 10:43:58;;;;;;;4.00;2.00;;;6.10;99.90;;;;;;10022777;28;20091;-73
2023/11/27 10:48:49;;;;;;;3.50;1.83;;;6.10;99.90;;;;;;10022630;28;20033;-70
2023/11/27 10:53:49;;;;;;;5.45;1.67;;;6.10;99.90;;;;;;10027247;28;20053;-72
2023/11/27 10:58:39;;;;;;;3.33;2.10;;;6.10;99.90;;;;;;10019177;28;20022;-71
2023/11/27 11:03:32;;;;;;;2.95;1.90;;;6.10;99.90;;;;;;10037711;28;20030;-72
2023/11/27 11:08:26;;;;;;;2.97;2.08;;;6.20;99.90;;;;;;10026494;28;20041;-72
2023/11/27 11:13:18;;;;;;;2.05;1.60;;;6.20;99.90;;;;;;10036738;28;20081;-71
2023/11/27 11:18:51;;;;;;;12.15;4.00;;;6.20;99.90;;;;;;10018825;28;20065;-72
2023/11/27 11:24:08;;;;;;;4.63;2.17;;;6.20;99.90;;;;;;10016083;28;20030;-72
2023/11/27 11:29:14;;;;;;;2.83;1.48;;;6.30;99.90;;;;;;10019098;28;20204;-69
2023/11/27 11:34:06;;;;;;;3.97;2.17;;;6.30;99.90;;;;;;10015362;28;20026;-77
2023/11/27 11:38:57;;;;;;;7.63;1.58;;;6.30;99.90;;;;;;10019041;28;20026;-72
2023/11/27 11:43:52;;;;;;;3.85;1.83;;;6.40;99.90;;;;;;10018195;28;20034;-73
2023/11/27 11:48:43;;;;;;;5.10;2.10;;;6.40;99.90;;;;;;10033973;28;20494;-74
2023/11/27 11:53:39;;;;;;;2.97;1.30;;;6.40;99.90;;;;;;10016664;28;20041;-77
2023/11/27 11:58:29;;;;;;;;;;;6.40;99.90;;;;;;10017877;28;20432;-76
2023/11/27 12:03:21;;;;;;;1.38;1.23;;;6.40;99.90;;;;;;10018374;28;19905;-78
2023/11/27 12:08:12;;;;;;;4.68;1.88;;;6.40;99.90;;;;;;10017979;28;20042;-74
2023/11/27 12:13:07;;;;;;;2.80;1.48;;;6.40;99.90;;;;;;10016321;28;20495;-73
2023/11/27 12:17:58;;;;;;;3.13;1.65;;;6.40;99.90;;;;;;10014631;28;20029;-74
2023/11/27 12:22:50;;;;;;;2.47;1.40;;;6.40;99.90;;;;;;10018875;28;20476;-77
2023/11/27 12:27:41;;;;;;;4.95;1.70;;;6.40;99.90;;;;;;10022103;28;20121;-75
2023/11/27 12:32:32;;;;;;;3.28;1.38;;;6.40;99.90;;;;;;10019922;28;20127;-76
2023/11/27 12:37:28;;;;;;;6.18;2.22;;;6.40;99.90;;;;;;10016594;28;20034;-73
2023/11/27 12:42:22;;;;;;;4.55;1.65;;;6.40;99.90;;;;;;10012537;28;20022;-74
2023/11/27 12:47:18;;;;;;;3.85;1.65;;;6.40;99.90;;;;;;10015845;28;20046;-71
2023/11/27 12:52:10;;;;;;;1.55;1.08;;;6.30;99.90;;;;;;10015992;28;20022;-70
2023/11/27 12:57:05;;;;;;;2.08;1.15;;;6.30;99.90;;;;;;10015087;28;20199;-71
2023/11/27 13:01:59;;;;;;;3.30;1.35;;;6.20;99.90;;;;;;10013905;28;20033;-73
2023/11/27 13:06:51;;;;;;;3.13;1.40;;;6.20;99.90;;;;;;10012916;28;20025;-71
2023/11/27 13:11:42;;;;;;;1.88;1.40;;;6.10;99.90;;;;;;10014726;28;20049;-73
2023/11/27 13:16:33;;;;;;;2.30;1.52;;;6.00;99.90;;;;;;10014723;28;20029;-71
2023/11/27 13:21:32;;;;;;;1.50;1.40;;;6.10;99.90;;;;;;10028951;28;20033;-73
2023/11/27 13:26:28;;;;;;;3.28;1.30;;;6.20;99.90;;;;;;10016571;28;20121;-73
2023/11/27 13:31:25;;;;;;;2.33;1.70;;;6.20;99.90;;;;;;10020816;28;20495;-72
2023/11/27 13:36:19;;;;;;;3.58;1.90;;;6.20;99.90;;;;;;10014958;28;20021;-71
2023/11/27 13:41:14;;;;;;;2.72;1.25;;;6.20;99.90;;;;;;10014425;28;20121;-72
2023/11/27 13:46:07;;;;;;;4.38;0.80;;;6.20;99.90;;;;;;10012571;28;20409;-72
2023/11/27 13:50:58;;;;;;;1.63;1.10;;;6.20;99.90;;;;;;10014162;28;20030;-72
2023/11/27 13:55:55;;;;;;;2.50;1.20;;;6.30;99.90;;;;;;10019174;28;20424;-70
2023/11/27 14:00:48;;;;;;;4.00;1.58;;;6.30;99.90;;;;;;10037980;28;20049;-72
2023/11/27 14:05:39;;;;;;;1.83;1.02;;;6.30;99.90;;;;;;10022929;28;20526;-72
2023/11/27 14:10:54;;;;;;;4.80;1.30;;;6.30;99.90;;;;;;10023044;28;20037;-71
2023/11/27 14:15:47;;;;;;;1.10;1.00;;;6.40;99.90;;;;;;10021757;28;20025;-71
2023/11/27 14:30:38;;;;;;;2.72;0.95;;;6.30;99.90;;;;;;10025175;28;20048;-71
2023/11/27 14:35:29;;;;;;;3.42;1.45;;;6.30;99.90;;;;;;10024063;28;20475;-71
2023/11/27 14:40:22;;;;;;;4.28;1.00;;;6.30;99.90;;;;;;10036155;28;20030;-71
2023/11/27 14:45:15;;;;;;;1.58;0.88;;;6.30;99.90;;;;;;10036216;28;20056;-71
2023/11/27 14:50:07;;;;;;;1.92;1.17;;;6.30;99.90;;;;;;10020774;28;20026;-72
2023/11/27 14:54:57;;;;;;;2.88;1.02;;;6.30;99.90;;;;;;10019300;28;20104;-71
2023/11/27 14:59:50;;;;;;;1.35;1.20;;;6.30;99.90;;;;;;10018009;28;20114;-73
2023/11/27 15:04:43;;;;;;;1.55;0.98;;;6.30;99.90;;;;;;10019858;28;20014;-70
2023/11/27 15:09:35;;;;;;;2.78;1.20;;;6.40;99.90;;;;;;10017219;28;20159;-73
2023/11/27 15:14:25;;;;;;;3.30;0.73;;;6.30;99.90;;;;;;10020217;28;20022;-72
2023/11/27 15:19:18;;;;;;;1.35;0.80;;;6.50;99.90;;;;;;10034054;28;20029;-71
2023/11/27 15:24:12;;;;;;;1.85;0.80;;;6.30;99.90;;;;;;10019692;28;20025;-71
2023/11/27 15:29:05;;;;;;;1.08;0.60;;;6.30;99.90;;;;;;10015892;28;20073;-71
2023/11/27 15:33:55;;;;;;;2.83;0.70;;;6.20;99.90;;;;;;10034671;28;20026;-69
2023/11/27 15:38:46;;;;;;;1.33;0.77;;;6.20;99.90;;;;;;10017836;28;20479;-70
2023/11/27 15:43:41;;;;;;;3.72;1.23;;;6.20;99.90;;;;;;10019296;28;20037;-70
2023/11/27 15:48:32;;;;;;;2.00;0.75;;;6.20;99.90;;;;;;10016310;28;20029;-70
2023/11/27 15:53:25;;;;;;;1.58;0.70;;;6.20;99.90;;;;;;10018614;28;20048;-69
2023/11/27 15:58:16;;;;;;;1.95;1.00;;;6.10;99.90;;;;;;10017904;28;20668;-69
2023/11/27 16:03:07;;;;;;;1.58;0.65;;;6.20;99.90;;;;;;10017831;28;20041;-69
2023/11/27 16:08:01;;;;;;;2.03;0.57;;;6.20;99.90;;;;;;10017807;28;20045;-70
2023/11/27 16:12:53;;;;;;;2.67;1.40;;;6.10;99.90;;;;;;10015435;28;20021;-71
2023/11/27 16:17:46;;;;;;;1.10;0.70;;;6.10;99.90;;;;;;10015905;28;20577;-70
2023/11/27 16:22:36;;;;;;;2.50;0.60;;;6.10;99.90;;;;;;10016992;28;20048;-70
2023/11/27 16:27:28;;;;;;;3.17;0.73;;;6.10;99.90;;;;;;10021017;28;20649;-70
2023/11/27 16:32:18;;;;;;;1.15;0.63;;;6.20;99.90;;;;;;10019683;28;20051;-69
2023/11/27 16:37:09;;;;;;;1.48;0.60;;;6.20;99.90;;;;;;10017590;28;20511;-69
2023/11/27 16:42:04;;;;;;;1.42;0.73;;;6.10;99.90;;;;;;10019180;28;20029;-69
2023/11/27 16:46:55;;;;;;;1.50;0.95;;;6.10;99.90;;;;;;10030728;28;20062;-70
2023/11/27 16:51:46;;;;;;;1.85;1.08;;;6.10;99.90;;;;;;10016082;28;20040;-69
2023/11/27 16:56:37;;;;;;;1.92;0.75;;;6.10;99.90;;;;;;10017110;28;20053;-70
2023/11/27 17:01:28;;;;;;;1.33;0.73;;;6.10;99.90;;;;;;10018422;28;20038;-71
2023/11/27 17:06:18;;;;;;;1.40;1.00;;;6.00;99.90;;;;;;10032766;28;20407;-70
2023/11/27 17:11:09;;;;;;;1.63;0.80;;;6.10;99.90;;;;;;10017669;28;20041;-70
2023/11/27 17:16:00;;;;;;;2.03;0.90;;;6.10;99.90;;;;;;10017031;28;20026;-70
2023/11/27 17:20:51;;;;;;;2.85;1.40;;;6.10;99.90;;;;;;10016675;28;20396;-70
2023/11/27 17:25:46;;;;;;;1.38;0.80;;;6.00;99.90;;;;;;10032741;28;20129;-70
2023/11/27 17:30:49;;;;;;;0.90;0.73;;;6.10;99.90;;;;;;10030925;28;20037;-70
2023/11/27 17:35:40;;;;;;;1.25;0.77;;;6.00;99.90;;;;;;10016092;28;20030;-72
2023/11/27 17:40:31;;;;;;;3.13;1.05;;;6.10;99.90;;;;;;10018344;28;20424;-73
2023/11/27 17:45:24;;;;;;;1.75;1.27;;;6.10;99.90;;;;;;10017178;28;20526;-71
2023/11/27 17:50:19;;;;;;;1.80;0.65;;;6.00;99.90;;;;;;10032020;28;20057;-70
2023/11/27 17:55:11;;;;;;;3.45;1.48;;;6.10;99.90;;;;;;10031868;28;20050;-71
2023/11/27 18:00:01;;;;;;;2.13;0.93;;;6.00;99.90;;;;;;10020194;28;20021;-71
2023/11/27 18:04:52;;;;;;;2.33;1.38;;;6.10;99.90;;;;;;10019078;28;20108;-70
2023/11/27 18:09:43;;;;;;;1.67;0.93;;;6.10;99.90;;;;;;10018341;28;20045;-72
2023/11/27 18:14:34;;;;;;;2.72;0.60;;;6.10;99.90;;;;;;10030283;28;20037;-72
2023/11/27 18:19:26;;;;;;;1.55;1.10;;;6.10;99.90;;;;;;10014041;28;20034;-70
2023/11/27 18:24:17;;;;;;;1.08;0.80;;;6.10;99.90;;;;;;10014187;28;20022;-71
2023/11/27 18:29:08;;;;;;;1.38;0.80;;;6.10;99.90;;;;;;10020620;28;20061;-69
2023/11/27 18:33:59;;;;;;;1.05;0.80;;;6.10;99.90;;;;;;10020669;28;20023;-69
2023/11/27 18:38:50;;;;;;;1.58;0.80;;;6.10;99.90;;;;;;10014588;28;20030;-70
2023/11/27 18:43:43;;;;;;;4.10;1.67;;;6.10;99.90;;;;;;10034497;28;20041;-71
2023/11/27 18:48:34;;;;;;;1.10;0.60;;;6.10;99.90;;;;;;10032626;28;20037;-72
2023/11/27 18:53:25;;;;;;;1.65;0.45;;;6.10;99.90;;;;;;10035429;28;20034;-70
2023/11/27 18:58:16;;;;;;;1.05;0.52;;;6.10;99.90;;;;;;10035039;28;20053;-71
2023/11/27 19:03:07;;;;;;;1.95;0.63;;;6.10;99.90;;;;;;10021274;28;20041;-73
2023/11/27 19:07:57;;;;;;;0.63;0.60;;;6.00;99.90;;;;;;10020737;28;20124;-73
2023/11/27 19:12:49;;;;;;;2.08;0.55;;;6.00;99.90;;;;;;10021250;28;20484;-72
2023/11/27 19:17:46;;;;;;;2.05;0.80;;;6.10;99.90;;;;;;10019750;28;20030;-72
2023/11/27 19:22:36;;;;;;;0.70;0.60;;;6.10;99.90;;;;;;10020190;28;20418;-70
2023/11/27 19:27:27;;;;;;;1.02;0.80;;;6.00;99.90;;;;;;10020379;28;20030;-71
2023/11/27 19:32:18;;;;;;;0.80;0.57;;;6.10;99.90;;;;;;10037868;28;20488;-72
2023/11/27 19:37:09;;;;;;;0.93;0.65;;;6.10;99.90;;;;;;10019436;28;20495;-73
2023/11/27 19:42:01;;;;;;;1.17;0.60;;;6.10;99.90;;;;;;10034916;28;20026;-71
2023/11/27 19:46:53;;;;;;;2.60;0.60;;;6.10;99.90;;;;;;10019216;28;20298;-71
2023/11/27 19:51:43;;;;;;;3.67;1.08;;;6.10;99.90;;;;;;10031498;28;20033;-72
2023/11/27 19:56:36;;;;;;;2.78;0.70;;;6.00;99.90;;;;;;10018676;28;20046;-71
2023/11/27 20:01:26;;;;;;;1.00;0.88;;;6.10;99.90;;;;;;10017239;28;20022;-72
2023/11/27 20:06:17;;;;;;;3.58;0.82;;;6.00;99.90;;;;;;10017015;28;20041;-71
2023/11/27 20:11:10;;;;;;;0.60;0.60;;;6.00;99.90;;;;;;10017947;28;20054;-71
2023/11/27 20:16:03;;;;;;;2.30;0.43;;;6.10;99.90;;;;;;10032857;28;20022;-71
2023/11/27 20:20:55;;;;;;;2.85;1.05;;;6.00;99.90;;;;;;10018324;28;20026;-72
2023/11/27 20:25:47;;;;;;;0.50;0.50;;;6.10;99.90;;;;;;10019774;28;20075;-75
2023/11/27 20:30:48;;;;;;;1.98;0.90;;;6.00;99.90;;;;;;10013629;28;20104;-72
2023/11/27 20:35:40;;;;;;;1.52;0.80;;;5.90;99.90;;;;;;10018122;28;20048;-74
2023/11/27 20:40:30;;;;;;;1.77;0.60;;;6.00;99.90;;;;;;10017211;28;20055;-73
2023/11/27 20:45:21;;;;;;;0.35;0.35;;;5.90;99.90;;;;;;10015796;28;20507;-73
2023/11/27 20:50:12;;;;;;;1.70;0.38;;;5.90;99.90;;;;;;10016784;28;20042;-70
2023/11/27 20:55:04;;;;;;;1.20;1.02;;;5.90;99.90;;;;;;10015451;28;20053;-73
2023/11/27 20:59:55;;;;;;;1.05;0.73;;;5.90;99.90;;;;;;10013718;28;20054;-73
2023/11/27 21:04:46;;;;;;;0.75;0.50;;;6.00;99.90;;;;;;10013704;28;20435;-71
2023/11/27 21:09:37;;;;;;;1.30;0.65;;;6.00;99.90;;;;;;10015968;28;20057;-71
2023/11/27 21:14:28;;;;;;;1.80;0.60;;;6.00;99.90;;;;;;10015262;28;20036;-71
2023/11/27 21:19:18;;;;;;;1.92;0.70;;;6.00;99.90;;;;;;10029618;28;20373;-70
2023/11/27 21:24:09;;;;;;;1.70;0.90;;;6.00;99.90;;;;;;10015209;28;20602;-71
2023/11/27 21:29:00;;;;;;;1.33;0.88;;;5.90;99.90;;;;;;10019762;28;20041;-70
2023/11/27 21:33:51;;;;;;;0.85;0.60;;;6.00;99.90;;;;;;10017301;28;20029;-73
2023/11/27 21:38:41;;;;;;;0.80;0.50;;;6.00;99.90;;;;;;10014657;28;20117;-73
2023/11/27 21:43:32;;;;;;;1.63;0.45;;;5.90;99.90;;;;;;10029707;28;20428;-72
2023/11/27 21:48:23;;;;;;;1.02;0.75;;;5.90;99.90;;;;;;10014524;28;20060;-74
2023/11/27 21:53:15;;;;;;;1.00;0.90;;;6.00;99.90;;;;;;10015864;28;20096;-75
2023/11/27 21:58:05;;;;;;;1.80;0.80;;;6.00;99.90;;;;;;10016168;28;20183;-75
2023/11/27 22:02:56;;;;;;;0.90;0.57;;;6.10;99.90;;;;;;10031881;28;20026;-75
2023/11/27 22:07:49;;;;;;;1.83;0.57;;;5.90;99.90;;;;;;10016147;28;20033;-74
2023/11/27 22:12:39;;;;;;;1.95;0.80;;;6.00;99.90;;;;;;10031451;28;20030;-71
2023/11/27 22:17:31;;;;;;;1.92;0.55;;;6.00;99.90;;;;;;10021600;28;20026;-75
2023/11/27 22:22:21;;;;;;;0.98;0.70;;;6.00;99.90;;;;;;10023947;28;20109;-76
2023/11/27 22:27:12;;;;;;;0.50;0.43;;;6.00;99.90;;;;;;10027839;28;20582;-76
2023/11/27 22:32:03;;;;;;;0.75;0.50;;;6.10;99.90;;;;;;10030353;28;20022;-74
2023/11/27 22:36:54;;;;;;;1.02;0.50;;;6.10;99.90;;;;;;10022921;28;20025;-74
2023/11/27 22:41:45;;;;;;;2.20;0.70;;;6.10;99.90;;;;;;10022419;28;20030;-72
2023/11/27 22:46:38;;;;;;;1.33;0.60;;;6.10;99.90;;;;;;10037595;28;20036;-69
2023/11/27 22:51:28;;;;;;;0.40;0.40;;;6.10;99.90;;;;;;10023116;28;20088;-72
2023/11/27 22:56:20;;;;;;;0.77;0.50;;;6.20;99.90;;;;;;10022857;28;20823;-73
2023/11/27 23:01:12;;;;;;;0.88;0.50;;;6.20;99.90;;;;;;10022264;28;20089;-75
2023/11/27 23:06:11;;;;;;;0.93;0.40;;;6.20;99.90;;;;;;10021328;28;20022;-73
2023/11/27 23:11:07;;;;;;;0.65;0.55;;;6.20;99.90;;;;;;10021596;28;20546;-73
2023/11/27 23:15:57;;;;;;;0.90;0.50;;;6.20;99.90;;;;;;10020965;28;20109;-74
2023/11/27 23:20:48;;;;;;;1.10;0.50;;;6.20;99.90;;;;;;10020968;28;20500;-73
2023/11/27 23:25:43;;;;;;;2.47;0.38;;;6.30;99.90;;;;;;10020305;28;20052;-74
2023/11/27 23:30:34;;;;;;;0.65;0.40;;;6.20;99.90;;;;;;10022670;28;21358;-74
2023/11/27 23:35:24;;;;;;;0.77;0.30;;;6.30;99.90;;;;;;10023273;28;20041;-71
2023/11/27 23:40:15;;;;;;;0.60;0.30;;;6.30;99.90;;;;;;10020553;28;20072;-73
2023/11/27 23:45:06;;;;;;;1.23;0.50;;;6.30;99.90;;;;;;10020614;28;20018;-75
2023/11/27 23:49:57;;;;;;;1.05;0.45;;;6.30;99.90;;;;;;10020546;28;20045;-74
2023/11/27 23:54:49;;;;;;;1.33;0.38;;;6.30;99.90;;;;;;10019804;28;20066;-73
2023/11/27 23:59:40;;;;;;;0.45;0.30;;;6.30;99.90;;;;;;10021232;28;20087;-75
